sensor_id;sensor_type;location;lat;lon;timestamp;P1;durP1;ratioP1;P2;durP2;ratioP2
1577;SDS011;57623;53.608;10.004;2023-07-13T00:00:58;6.03;;;5.43;;
1577;SDS011;57623;53.608;10.004;2023-07-13T00:03:25;5.40;;;4.90;;
1577;SDS011;57623;53.608;10.004;2023-07-13T00:06:00;5.97;;;5.47;;
1577;SDS011;57623;53.608;10.004;2023-07-13T00:08:30;5.63;;;5.03;;
1577;SDS011;57623;53.608;10.004;2023-07-13T00:11:00;5.57;;;5.13;;
1577;SDS011;57623;53.608;10.004;2023-07-13T00:13:30;5.63;;;5.13;;
1577;SDS011;57623;53.608;10.004;2023-07-13T00:15:58;5.67;;;5.10;;
1577;SDS011;57623;53.608;10.004;2023-07-13T00:18:27;6.67;;;5.13;;
1577;SDS011;57623;53.608;10.004;2023-07-13T00:20:56;5.03;;;4.30;;
1577;SDS011;57623;53.608;10.004;2023-07-13T00:23:31;5.33;;;4.83;;
1577;SDS011;57623;53.608;10.004;2023-07-13T00:26:00;6.30;;;5.70;;
1577;SDS011;57623;53.608;10.004;2023-07-13T00:28:30;9.87;;;5.50;;
1577;SDS011;57623;53.608;10.004;2023-07-13T00:30:58;6.50;;;5.43;;
1577;SDS011;57623;53.608;10.004;2023-07-13T00:33:26;6.00;;;5.40;;
1577;SDS011;57623;53.608;10.004;2023-07-13T00:35:55;9.27;;;5.57;;
1577;SDS011;57623;53.608;10.004;2023-07-13T00:38:23;5.90;;;5.13;;
1577;SDS011;57623;53.608;10.004;2023-07-13T00:40:52;5.30;;;4.80;;
1577;SDS011;57623;53.608;10.004;2023-07-13T00:43:22;5.57;;;5.07;;
1577;SDS011;57623;53.608;10.004;2023-07-13T00:48:49;5.60;;;5.10;;
1577;SDS011;57623;53.608;10.004;2023-07-13T00:51:20;6.63;;;4.90;;
1577;SDS011;57623;53.608;10.004;2023-07-13T00:53:54;5.47;;;5.03;;
1577;SDS011;57623;53.608;10.004;2023-07-13T00:56:26;5.50;;;5.00;;
1577;SDS011;57623;53.608;10.004;2023-07-13T00:58:56;5.20;;;4.70;;
1577;SDS011;57623;53.608;10.004;2023-07-13T01:01:26;5.23;;;4.80;;
1577;SDS011;57623;53.608;10.004;2023-07-13T01:03:54;4.93;;;4.53;;
1577;SDS011;57623;53.608;10.004;2023-07-13T01:06:23;5.10;;;4.60;;
1577;SDS011;57623;53.608;10.004;2023-07-13T01:08:51;6.30;;;4.70;;
1577;SDS011;57623;53.608;10.004;2023-07-13T01:11:20;5.20;;;4.80;;
1577;SDS011;57623;53.608;10.004;2023-07-13T01:13:49;9.80;;;4.70;;
1577;SDS011;57623;53.608;10.004;2023-07-13T01:16:22;4.97;;;4.57;;
1577;SDS011;57623;53.608;10.004;2023-07-13T01:18:53;5.00;;;4.60;;
1577;SDS011;57623;53.608;10.004;2023-07-13T01:21:25;4.80;;;4.40;;
1577;SDS011;57623;53.608;10.004;2023-07-13T01:23:53;5.17;;;4.77;;
1577;SDS011;57623;53.608;10.004;2023-07-13T01:26:21;4.80;;;4.40;;
1577;SDS011;57623;53.608;10.004;2023-07-13T01:28:49;4.80;;;4.40;;
1577;SDS011;57623;53.608;10.004;2023-07-13T01:31:17;4.73;;;4.33;;
1577;SDS011;57623;53.608;10.004;2023-07-13T01:33:45;4.83;;;4.43;;
1577;SDS011;57623;53.608;10.004;2023-07-13T01:36:13;5.07;;;4.67;;
1577;SDS011;57623;53.608;10.004;2023-07-13T01:38:43;6.33;;;4.63;;
1577;SDS011;57623;53.608;10.004;2023-07-13T01:41:11;5.23;;;4.73;;
1577;SDS011;57623;53.608;10.004;2023-07-13T01:43:39;6.20;;;5.00;;
1577;SDS011;57623;53.608;10.004;2023-07-13T01:46:07;5.30;;;4.90;;
1577;SDS011;57623;53.608;10.004;2023-07-13T01:48:42;6.80;;;6.20;;
1577;SDS011;57623;53.608;10.004;2023-07-13T01:51:10;5.60;;;5.20;;
1577;SDS011;57623;53.608;10.004;2023-07-13T01:53:38;6.20;;;5.60;;
1577;SDS011;57623;53.608;10.004;2023-07-13T01:56:08;6.50;;;5.83;;
1577;SDS011;57623;53.608;10.004;2023-07-13T01:58:36;5.53;;;5.03;;
1577;SDS011;57623;53.608;10.004;2023-07-13T02:01:04;6.20;;;5.70;;
1577;SDS011;57623;53.608;10.004;2023-07-13T02:03:33;5.70;;;5.20;;
1577;SDS011;57623;53.608;10.004;2023-07-13T02:06:01;6.27;;;5.77;;
1577;SDS011;57623;53.608;10.004;2023-07-13T02:08:29;5.70;;;5.27;;
1577;SDS011;57623;53.608;10.004;2023-07-13T02:10:58;6.20;;;5.70;;
1577;SDS011;57623;53.608;10.004;2023-07-13T02:13:27;5.97;;;5.47;;
1577;SDS011;57623;53.608;10.004;2023-07-13T02:15:55;6.00;;;5.60;;
1577;SDS011;57623;53.608;10.004;2023-07-13T02:18:23;6.60;;;6.10;;
1577;SDS011;57623;53.608;10.004;2023-07-13T02:20:51;5.50;;;5.10;;
1577;SDS011;57623;53.608;10.004;2023-07-13T02:23:19;5.73;;;5.43;;
1577;SDS011;57623;53.608;10.004;2023-07-13T02:25:47;6.30;;;5.83;;
1577;SDS011;57623;53.608;10.004;2023-07-13T02:28:15;6.03;;;5.63;;
1577;SDS011;57623;53.608;10.004;2023-07-13T02:30:44;6.20;;;5.70;;
1577;SDS011;57623;53.608;10.004;2023-07-13T02:33:12;7.70;;;6.30;;
1577;SDS011;57623;53.608;10.004;2023-07-13T02:35:40;5.53;;;5.10;;
1577;SDS011;57623;53.608;10.004;2023-07-13T02:38:08;6.40;;;5.93;;
1577;SDS011;57623;53.608;10.004;2023-07-13T02:40:37;6.20;;;5.60;;
1577;SDS011;57623;53.608;10.004;2023-07-13T02:43:05;6.57;;;6.07;;
1577;SDS011;57623;53.608;10.004;2023-07-13T02:45:33;6.33;;;5.83;;
1577;SDS011;57623;53.608;10.004;2023-07-13T02:48:02;5.90;;;5.50;;
1577;SDS011;57623;53.608;10.004;2023-07-13T02:50:30;6.47;;;5.87;;
1577;SDS011;57623;53.608;10.004;2023-07-13T02:52:58;6.30;;;5.77;;
1577;SDS011;57623;53.608;10.004;2023-07-13T02:55:26;7.07;;;6.57;;
1577;SDS011;57623;53.608;10.004;2023-07-13T02:57:54;6.43;;;5.93;;
1577;SDS011;57623;53.608;10.004;2023-07-13T03:00:23;6.70;;;6.10;;
1577;SDS011;57623;53.608;10.004;2023-07-13T03:02:51;6.00;;;5.50;;
1577;SDS011;57623;53.608;10.004;2023-07-13T03:05:20;7.33;;;6.73;;
1577;SDS011;57623;53.608;10.004;2023-07-13T03:07:48;6.77;;;6.20;;
1577;SDS011;57623;53.608;10.004;2023-07-13T03:10:16;6.27;;;5.77;;
1577;SDS011;57623;53.608;10.004;2023-07-13T03:12:44;6.60;;;6.10;;
1577;SDS011;57623;53.608;10.004;2023-07-13T03:15:12;6.30;;;5.80;;
1577;SDS011;57623;53.608;10.004;2023-07-13T03:17:40;6.77;;;6.27;;
1577;SDS011;57623;53.608;10.004;2023-07-13T03:20:08;7.27;;;6.70;;
1577;SDS011;57623;53.608;10.004;2023-07-13T03:22:39;7.57;;;6.07;;
1577;SDS011;57623;53.608;10.004;2023-07-13T03:25:08;6.20;;;5.80;;
1577;SDS011;57623;53.608;10.004;2023-07-13T03:27:36;7.10;;;6.60;;
1577;SDS011;57623;53.608;10.004;2023-07-13T03:30:05;6.53;;;6.07;;
1577;SDS011;57623;53.608;10.004;2023-07-13T03:32:34;6.97;;;6.33;;
1577;SDS011;57623;53.608;10.004;2023-07-13T03:35:02;6.33;;;5.90;;
1577;SDS011;57623;53.608;10.004;2023-07-13T03:37:30;6.40;;;5.97;;
1577;SDS011;57623;53.608;10.004;2023-07-13T03:39:59;6.07;;;5.57;;
1577;SDS011;57623;53.608;10.004;2023-07-13T03:42:27;6.73;;;6.17;;
1577;SDS011;57623;53.608;10.004;2023-07-13T03:44:55;6.57;;;6.07;;
1577;SDS011;57623;53.608;10.004;2023-07-13T03:47:23;7.20;;;6.50;;
1577;SDS011;57623;53.608;10.004;2023-07-13T03:49:51;6.30;;;5.90;;
1577;SDS011;57623;53.608;10.004;2023-07-13T03:52:19;7.07;;;6.47;;
1577;SDS011;57623;53.608;10.004;2023-07-13T03:54:47;7.40;;;6.70;;
1577;SDS011;57623;53.608;10.004;2023-07-13T03:57:18;7.13;;;6.50;;
1577;SDS011;57623;53.608;10.004;2023-07-13T03:59:46;7.03;;;6.43;;
1577;SDS011;57623;53.608;10.004;2023-07-13T04:02:14;6.00;;;5.37;;
1577;SDS011;57623;53.608;10.004;2023-07-13T04:04:42;6.50;;;6.00;;
1577;SDS011;57623;53.608;10.004;2023-07-13T04:07:10;6.80;;;6.20;;
1577;SDS011;57623;53.608;10.004;2023-07-13T04:09:38;6.47;;;5.87;;
1577;SDS011;57623;53.608;10.004;2023-07-13T04:12:06;6.40;;;5.80;;
1577;SDS011;57623;53.608;10.004;2023-07-13T04:14:37;6.60;;;6.00;;
1577;SDS011;57623;53.608;10.004;2023-07-13T04:17:05;6.10;;;5.50;;
1577;SDS011;57623;53.608;10.004;2023-07-13T04:19:33;6.23;;;5.40;;
1577;SDS011;57623;53.608;10.004;2023-07-13T04:22:01;6.03;;;5.53;;
1577;SDS011;57623;53.608;10.004;2023-07-13T04:24:30;11.23;;;5.83;;
1577;SDS011;57623;53.608;10.004;2023-07-13T04:26:57;6.17;;;5.53;;
1577;SDS011;57623;53.608;10.004;2023-07-13T04:29:26;6.10;;;5.57;;
1577;SDS011;57623;53.608;10.004;2023-07-13T04:31:56;5.97;;;5.37;;
1577;SDS011;57623;53.608;10.004;2023-07-13T04:34:24;6.70;;;6.10;;
1577;SDS011;57623;53.608;10.004;2023-07-13T04:36:52;5.80;;;5.20;;
1577;SDS011;57623;53.608;10.004;2023-07-13T04:39:20;6.20;;;5.63;;
1577;SDS011;57623;53.608;10.004;2023-07-13T04:41:48;6.50;;;5.20;;
1577;SDS011;57623;53.608;10.004;2023-07-13T04:44:16;6.80;;;5.73;;
1577;SDS011;57623;53.608;10.004;2023-07-13T04:46:44;6.10;;;5.60;;
1577;SDS011;57623;53.608;10.004;2023-07-13T04:49:13;7.80;;;5.20;;
1577;SDS011;57623;53.608;10.004;2023-07-13T04:51:41;6.13;;;5.53;;
1577;SDS011;57623;53.608;10.004;2023-07-13T04:54:09;6.40;;;5.63;;
1577;SDS011;57623;53.608;10.004;2023-07-13T04:56:37;5.47;;;5.13;;
1577;SDS011;57623;53.608;10.004;2023-07-13T04:59:05;6.17;;;5.53;;
1577;SDS011;57623;53.608;10.004;2023-07-13T05:01:33;8.77;;;6.50;;
1577;SDS011;57623;53.608;10.004;2023-07-13T05:04:01;8.67;;;5.53;;
1577;SDS011;57623;53.608;10.004;2023-07-13T05:06:31;8.33;;;5.63;;
1577;SDS011;57623;53.608;10.004;2023-07-13T05:08:59;6.10;;;5.60;;
1577;SDS011;57623;53.608;10.004;2023-07-13T05:11:27;5.53;;;5.07;;
1577;SDS011;57623;53.608;10.004;2023-07-13T05:13:55;7.13;;;5.90;;
1577;SDS011;57623;53.608;10.004;2023-07-13T05:16:23;6.17;;;5.17;;
1577;SDS011;57623;53.608;10.004;2023-07-13T05:18:51;7.40;;;5.60;;
1577;SDS011;57623;53.608;10.004;2023-07-13T05:21:19;6.50;;;5.90;;
1577;SDS011;57623;53.608;10.004;2023-07-13T05:23:48;5.83;;;5.30;;
1577;SDS011;57623;53.608;10.004;2023-07-13T05:26:17;6.10;;;5.50;;
1577;SDS011;57623;53.608;10.004;2023-07-13T05:28:46;10.13;;;6.37;;
1577;SDS011;57623;53.608;10.004;2023-07-13T05:31:14;7.40;;;5.93;;
1577;SDS011;57623;53.608;10.004;2023-07-13T05:33:43;9.00;;;5.93;;
1577;SDS011;57623;53.608;10.004;2023-07-13T05:36:10;8.37;;;5.60;;
1577;SDS011;57623;53.608;10.004;2023-07-13T05:38:38;6.60;;;5.90;;
1577;SDS011;57623;53.608;10.004;2023-07-13T05:41:08;10.97;;;5.33;;
1577;SDS011;57623;53.608;10.004;2023-07-13T05:43:36;6.47;;;5.70;;
1577;SDS011;57623;53.608;10.004;2023-07-13T05:46:04;7.07;;;5.53;;
1577;SDS011;57623;53.608;10.004;2023-07-13T05:48:32;8.63;;;6.40;;
1577;SDS011;57623;53.608;10.004;2023-07-13T05:51:00;7.27;;;6.37;;
1577;SDS011;57623;53.608;10.004;2023-07-13T05:53:29;11.20;;;7.17;;
1577;SDS011;57623;53.608;10.004;2023-07-13T05:55:57;8.53;;;6.30;;
1577;SDS011;57623;53.608;10.004;2023-07-13T05:58:29;9.63;;;6.97;;
1577;SDS011;57623;53.608;10.004;2023-07-13T06:00:58;8.40;;;5.50;;
1577;SDS011;57623;53.608;10.004;2023-07-13T06:03:28;8.90;;;6.10;;
1577;SDS011;57623;53.608;10.004;2023-07-13T06:05:56;10.37;;;6.33;;
1577;SDS011;57623;53.608;10.004;2023-07-13T06:08:26;6.00;;;5.50;;
1577;SDS011;57623;53.608;10.004;2023-07-13T06:10:55;6.73;;;6.00;;
1577;SDS011;57623;53.608;10.004;2023-07-13T06:13:30;11.77;;;6.20;;
1577;SDS011;57623;53.608;10.004;2023-07-13T06:15:59;8.83;;;5.80;;
1577;SDS011;57623;53.608;10.004;2023-07-13T06:18:30;8.70;;;6.47;;
1577;SDS011;57623;53.608;10.004;2023-07-13T06:20:58;9.47;;;6.53;;
1577;SDS011;57623;53.608;10.004;2023-07-13T06:23:26;9.00;;;6.10;;
1577;SDS011;57623;53.608;10.004;2023-07-13T06:25:54;7.33;;;5.50;;
1577;SDS011;57623;53.608;10.004;2023-07-13T06:28:22;7.50;;;5.60;;
1577;SDS011;57623;53.608;10.004;2023-07-13T06:30:52;7.70;;;5.47;;
1577;SDS011;57623;53.608;10.004;2023-07-13T06:33:20;10.57;;;6.73;;
1577;SDS011;57623;53.608;10.004;2023-07-13T06:35:48;7.53;;;5.57;;
1577;SDS011;57623;53.608;10.004;2023-07-13T06:38:16;5.77;;;5.27;;
1577;SDS011;57623;53.608;10.004;2023-07-13T06:40:44;8.43;;;6.63;;
1577;SDS011;57623;53.608;10.004;2023-07-13T06:43:12;9.57;;;5.73;;
1577;SDS011;57623;53.608;10.004;2023-07-13T06:45:41;7.40;;;5.50;;
1577;SDS011;57623;53.608;10.004;2023-07-13T06:48:13;5.73;;;5.13;;
1577;SDS011;57623;53.608;10.004;2023-07-13T06:50:41;7.40;;;5.97;;
1577;SDS011;57623;53.608;10.004;2023-07-13T06:53:10;10.03;;;5.30;;
1577;SDS011;57623;53.608;10.004;2023-07-13T06:55:39;8.13;;;7.30;;
1577;SDS011;57623;53.608;10.004;2023-07-13T06:58:07;9.07;;;5.30;;
1577;SDS011;57623;53.608;10.004;2023-07-13T07:00:35;9.30;;;5.60;;
1577;SDS011;57623;53.608;10.004;2023-07-13T07:03:03;7.00;;;5.70;;
1577;SDS011;57623;53.608;10.004;2023-07-13T07:05:33;9.00;;;5.70;;
1577;SDS011;57623;53.608;10.004;2023-07-13T07:08:01;7.60;;;5.83;;
1577;SDS011;57623;53.608;10.004;2023-07-13T07:10:29;7.70;;;4.87;;
1577;SDS011;57623;53.608;10.004;2023-07-13T07:12:58;5.83;;;5.20;;
1577;SDS011;57623;53.608;10.004;2023-07-13T07:15:26;9.77;;;5.20;;
1577;SDS011;57623;53.608;10.004;2023-07-13T07:17:54;5.73;;;4.80;;
1577;SDS011;57623;53.608;10.004;2023-07-13T07:20:22;7.47;;;5.23;;
1577;SDS011;57623;53.608;10.004;2023-07-13T07:22:52;8.40;;;5.20;;
1577;SDS011;57623;53.608;10.004;2023-07-13T07:25:20;8.47;;;5.07;;
1577;SDS011;57623;53.608;10.004;2023-07-13T07:27:48;6.93;;;4.33;;
1577;SDS011;57623;53.608;10.004;2023-07-13T07:30:19;7.10;;;4.43;;
1577;SDS011;57623;53.608;10.004;2023-07-13T07:32:50;7.30;;;4.43;;
1577;SDS011;57623;53.608;10.004;2023-07-13T07:35:22;10.13;;;4.73;;
1577;SDS011;57623;53.608;10.004;2023-07-13T07:37:52;7.10;;;4.00;;
1577;SDS011;57623;53.608;10.004;2023-07-13T07:40:20;7.73;;;4.20;;
1577;SDS011;57623;53.608;10.004;2023-07-13T07:42:51;7.20;;;4.17;;
1577;SDS011;57623;53.608;10.004;2023-07-13T07:45:19;8.63;;;5.80;;
1577;SDS011;57623;53.608;10.004;2023-07-13T07:47:48;8.27;;;5.37;;
1577;SDS011;57623;53.608;10.004;2023-07-13T07:50:16;8.43;;;5.13;;
1577;SDS011;57623;53.608;10.004;2023-07-13T07:52:46;10.10;;;8.07;;
1577;SDS011;57623;53.608;10.004;2023-07-13T07:55:15;27.07;;;24.13;;
1577;SDS011;57623;53.608;10.004;2023-07-13T07:57:46;19.57;;;16.03;;
1577;SDS011;57623;53.608;10.004;2023-07-13T08:00:17;24.67;;;22.27;;
1577;SDS011;57623;53.608;10.004;2023-07-13T08:02:48;56.50;;;50.57;;
1577;SDS011;57623;53.608;10.004;2023-07-13T08:05:19;15.23;;;13.73;;
1577;SDS011;57623;53.608;10.004;2023-07-13T08:08:07;46.63;;;42.17;;
1577;SDS011;57623;53.608;10.004;2023-07-13T08:10:37;16.20;;;14.60;;
1577;SDS011;57623;53.608;10.004;2023-07-13T08:13:05;15.27;;;13.70;;
1577;SDS011;57623;53.608;10.004;2023-07-13T08:15:36;13.93;;;12.50;;
1577;SDS011;57623;53.608;10.004;2023-07-13T08:18:04;14.77;;;13.27;;
1577;SDS011;57623;53.608;10.004;2023-07-13T08:20:36;9.63;;;7.43;;
1577;SDS011;57623;53.608;10.004;2023-07-13T08:23:04;8.87;;;7.60;;
1577;SDS011;57623;53.608;10.004;2023-07-13T08:25:33;11.87;;;9.73;;
1577;SDS011;57623;53.608;10.004;2023-07-13T08:28:03;7.50;;;6.60;;
1577;SDS011;57623;53.608;10.004;2023-07-13T08:30:31;12.57;;;8.77;;
1577;SDS011;57623;53.608;10.004;2023-07-13T08:32:59;6.90;;;4.50;;
1577;SDS011;57623;53.608;10.004;2023-07-13T08:35:28;5.53;;;4.70;;
1577;SDS011;57623;53.608;10.004;2023-07-13T08:37:56;6.33;;;3.87;;
1577;SDS011;57623;53.608;10.004;2023-07-13T08:40:25;6.13;;;4.03;;
1577;SDS011;57623;53.608;10.004;2023-07-13T08:42:55;7.60;;;5.50;;
1577;SDS011;57623;53.608;10.004;2023-07-13T08:45:28;5.53;;;3.40;;
1577;SDS011;57623;53.608;10.004;2023-07-13T08:48:08;7.03;;;3.40;;
1577;SDS011;57623;53.608;10.004;2023-07-13T08:50:45;4.63;;;3.80;;
1577;SDS011;57623;53.608;10.004;2023-07-13T08:53:29;3.53;;;3.23;;
1577;SDS011;57623;53.608;10.004;2023-07-13T08:56:01;5.37;;;3.63;;
1577;SDS011;57623;53.608;10.004;2023-07-13T08:58:31;5.40;;;3.30;;
1577;SDS011;57623;53.608;10.004;2023-07-13T09:01:03;7.43;;;3.60;;
1577;SDS011;57623;53.608;10.004;2023-07-13T09:03:41;4.90;;;3.77;;
1577;SDS011;57623;53.608;10.004;2023-07-13T09:06:14;7.10;;;3.60;;
1577;SDS011;57623;53.608;10.004;2023-07-13T09:08:46;6.57;;;3.47;;
1577;SDS011;57623;53.608;10.004;2023-07-13T09:11:26;6.83;;;3.87;;
1577;SDS011;57623;53.608;10.004;2023-07-13T09:14:06;3.90;;;3.00;;
1577;SDS011;57623;53.608;10.004;2023-07-13T09:16:48;5.60;;;3.23;;
1577;SDS011;57623;53.608;10.004;2023-07-13T09:19:19;4.13;;;3.37;;
1577;SDS011;57623;53.608;10.004;2023-07-13T09:21:51;4.03;;;3.00;;
1577;SDS011;57623;53.608;10.004;2023-07-13T09:24:26;4.40;;;3.20;;
1577;SDS011;57623;53.608;10.004;2023-07-13T09:27:03;4.80;;;3.00;;
1577;SDS011;57623;53.608;10.004;2023-07-13T09:29:45;4.50;;;3.30;;
1577;SDS011;57623;53.608;10.004;2023-07-13T09:32:18;3.50;;;3.00;;
1577;SDS011;57623;53.608;10.004;2023-07-13T09:34:51;4.30;;;3.50;;
1577;SDS011;57623;53.608;10.004;2023-07-13T09:37:20;6.53;;;3.27;;
1577;SDS011;57623;53.608;10.004;2023-07-13T09:39:50;6.47;;;3.60;;
1577;SDS011;57623;53.608;10.004;2023-07-13T09:42:20;7.37;;;3.50;;
1577;SDS011;57623;53.608;10.004;2023-07-13T09:44:53;4.50;;;3.30;;
1577;SDS011;57623;53.608;10.004;2023-07-13T09:47:24;6.67;;;3.97;;
1577;SDS011;57623;53.608;10.004;2023-07-13T09:49:54;4.70;;;3.47;;
1577;SDS011;57623;53.608;10.004;2023-07-13T09:52:38;5.90;;;3.50;;
1577;SDS011;57623;53.608;10.004;2023-07-13T09:55:22;3.90;;;3.50;;
1577;SDS011;57623;53.608;10.004;2023-07-13T09:57:52;4.53;;;3.43;;
1577;SDS011;57623;53.608;10.004;2023-07-13T10:00:22;3.90;;;3.60;;
1577;SDS011;57623;53.608;10.004;2023-07-13T10:03:03;4.40;;;3.17;;
1577;SDS011;57623;53.608;10.004;2023-07-13T10:05:37;6.13;;;3.57;;
1577;SDS011;57623;53.608;10.004;2023-07-13T10:08:08;4.90;;;3.10;;
1577;SDS011;57623;53.608;10.004;2023-07-13T10:10:44;5.00;;;3.43;;
1577;SDS011;57623;53.608;10.004;2023-07-13T10:13:23;5.20;;;3.50;;
1577;SDS011;57623;53.608;10.004;2023-07-13T10:15:57;3.43;;;3.13;;
1577;SDS011;57623;53.608;10.004;2023-07-13T10:18:28;5.97;;;3.20;;
1577;SDS011;57623;53.608;10.004;2023-07-13T10:21:00;3.67;;;3.00;;
1577;SDS011;57623;53.608;10.004;2023-07-13T10:23:47;5.40;;;3.07;;
1577;SDS011;57623;53.608;10.004;2023-07-13T10:26:19;3.10;;;2.80;;
1577;SDS011;57623;53.608;10.004;2023-07-13T10:28:51;4.27;;;3.00;;
1577;SDS011;57623;53.608;10.004;2023-07-13T10:31:22;6.23;;;3.00;;
1577;SDS011;57623;53.608;10.004;2023-07-13T10:33:52;3.50;;;3.00;;
1577;SDS011;57623;53.608;10.004;2023-07-13T10:36:23;3.53;;;2.90;;
1577;SDS011;57623;53.608;10.004;2023-07-13T10:38:59;4.63;;;3.07;;
1577;SDS011;57623;53.608;10.004;2023-07-13T10:41:30;2.97;;;2.63;;
1577;SDS011;57623;53.608;10.004;2023-07-13T10:44:01;4.13;;;3.03;;
1577;SDS011;57623;53.608;10.004;2023-07-13T10:46:31;3.10;;;2.60;;
1577;SDS011;57623;53.608;10.004;2023-07-13T10:49:01;4.47;;;2.90;;
1577;SDS011;57623;53.608;10.004;2023-07-13T10:51:32;3.30;;;2.57;;
1577;SDS011;57623;53.608;10.004;2023-07-13T10:54:12;4.23;;;2.80;;
1577;SDS011;57623;53.608;10.004;2023-07-13T10:56:46;3.50;;;2.60;;
1577;SDS011;57623;53.608;10.004;2023-07-13T10:59:17;3.20;;;2.50;;
1577;SDS011;57623;53.608;10.004;2023-07-13T11:01:56;4.60;;;2.67;;
1577;SDS011;57623;53.608;10.004;2023-07-13T11:04:28;3.53;;;2.40;;
1577;SDS011;57623;53.608;10.004;2023-07-13T11:07:09;3.80;;;2.63;;
1577;SDS011;57623;53.608;10.004;2023-07-13T11:09:49;3.70;;;2.80;;
1577;SDS011;57623;53.608;10.004;2023-07-13T11:15:28;2.77;;;2.50;;
1577;SDS011;57623;53.608;10.004;2023-07-13T11:18:02;2.60;;;2.40;;
1577;SDS011;57623;53.608;10.004;2023-07-13T11:20:37;3.10;;;2.47;;
1577;SDS011;57623;53.608;10.004;2023-07-13T11:23:07;3.97;;;2.73;;
1577;SDS011;57623;53.608;10.004;2023-07-13T11:25:46;6.23;;;2.90;;
1577;SDS011;57623;53.608;10.004;2023-07-13T11:28:16;2.70;;;2.50;;
1577;SDS011;57623;53.608;10.004;2023-07-13T11:30:49;3.30;;;2.40;;
1577;SDS011;57623;53.608;10.004;2023-07-13T11:33:31;4.10;;;2.60;;
1577;SDS011;57623;53.608;10.004;2023-07-13T11:36:19;2.80;;;2.30;;
1577;SDS011;57623;53.608;10.004;2023-07-13T11:38:51;4.03;;;2.57;;
1577;SDS011;57623;53.608;10.004;2023-07-13T11:41:26;3.40;;;2.47;;
1577;SDS011;57623;53.608;10.004;2023-07-13T11:44:02;2.53;;;2.30;;
1577;SDS011;57623;53.608;10.004;2023-07-13T11:46:34;5.27;;;2.40;;
1577;SDS011;57623;53.608;10.004;2023-07-13T11:49:04;3.47;;;2.53;;
1577;SDS011;57623;53.608;10.004;2023-07-13T11:51:35;3.90;;;2.43;;
1577;SDS011;57623;53.608;10.004;2023-07-13T11:54:05;2.77;;;2.40;;
1577;SDS011;57623;53.608;10.004;2023-07-13T11:56:41;4.50;;;2.40;;
1577;SDS011;57623;53.608;10.004;2023-07-13T11:59:10;2.30;;;2.10;;
1577;SDS011;57623;53.608;10.004;2023-07-13T12:01:42;2.43;;;2.23;;
1577;SDS011;57623;53.608;10.004;2023-07-13T12:04:19;2.87;;;2.63;;
1577;SDS011;57623;53.608;10.004;2023-07-13T12:06:55;3.37;;;2.20;;
1577;SDS011;57623;53.608;10.004;2023-07-13T12:09:26;3.03;;;2.30;;
1577;SDS011;57623;53.608;10.004;2023-07-13T12:11:56;3.20;;;2.30;;
1577;SDS011;57623;53.608;10.004;2023-07-13T12:14:27;4.57;;;2.63;;
1577;SDS011;57623;53.608;10.004;2023-07-13T12:16:55;5.30;;;2.30;;
1577;SDS011;57623;53.608;10.004;2023-07-13T12:19:25;6.70;;;2.70;;
1577;SDS011;57623;53.608;10.004;2023-07-13T12:21:57;4.60;;;2.83;;
1577;SDS011;57623;53.608;10.004;2023-07-13T12:24:26;5.80;;;2.70;;
1577;SDS011;57623;53.608;10.004;2023-07-13T12:26:58;3.80;;;3.10;;
1577;SDS011;57623;53.608;10.004;2023-07-13T12:29:27;5.13;;;3.13;;
1577;SDS011;57623;53.608;10.004;2023-07-13T12:31:56;4.30;;;3.17;;
1577;SDS011;57623;53.608;10.004;2023-07-13T12:34:24;3.50;;;2.97;;
1577;SDS011;57623;53.608;10.004;2023-07-13T12:36:54;4.23;;;2.60;;
1577;SDS011;57623;53.608;10.004;2023-07-13T12:39:26;2.77;;;2.50;;
1577;SDS011;57623;53.608;10.004;2023-07-13T12:42:16;5.73;;;3.37;;
1577;SDS011;57623;53.608;10.004;2023-07-13T12:44:50;3.57;;;3.27;;
1577;SDS011;57623;53.608;10.004;2023-07-13T12:47:20;3.50;;;2.60;;
1577;SDS011;57623;53.608;10.004;2023-07-13T12:49:49;5.60;;;3.37;;
1577;SDS011;57623;53.608;10.004;2023-07-13T12:52:21;5.50;;;3.70;;
1577;SDS011;57623;53.608;10.004;2023-07-13T12:54:55;3.70;;;3.33;;
1577;SDS011;57623;53.608;10.004;2023-07-13T12:57:32;4.37;;;3.93;;
1577;SDS011;57623;53.608;10.004;2023-07-13T13:00:09;5.73;;;3.80;;
1577;SDS011;57623;53.608;10.004;2023-07-13T13:02:51;6.10;;;3.90;;
1577;SDS011;57623;53.608;10.004;2023-07-13T13:05:33;3.93;;;3.40;;
1577;SDS011;57623;53.608;10.004;2023-07-13T13:08:04;4.03;;;2.77;;
1577;SDS011;57623;53.608;10.004;2023-07-13T13:10:33;3.70;;;3.30;;
1577;SDS011;57623;53.608;10.004;2023-07-13T13:13:02;3.50;;;2.50;;
1577;SDS011;57623;53.608;10.004;2023-07-13T13:15:30;3.90;;;2.60;;
1577;SDS011;57623;53.608;10.004;2023-07-13T13:17:59;3.73;;;2.80;;
1577;SDS011;57623;53.608;10.004;2023-07-13T13:20:27;6.47;;;3.33;;
1577;SDS011;57623;53.608;10.004;2023-07-13T13:22:55;4.53;;;3.03;;
1577;SDS011;57623;53.608;10.004;2023-07-13T13:25:23;3.07;;;2.77;;
1577;SDS011;57623;53.608;10.004;2023-07-13T13:27:52;5.13;;;2.90;;
1577;SDS011;57623;53.608;10.004;2023-07-13T13:30:20;5.93;;;2.80;;
1577;SDS011;57623;53.608;10.004;2023-07-13T13:32:49;3.50;;;2.60;;
1577;SDS011;57623;53.608;10.004;2023-07-13T13:35:18;2.17;;;2.07;;
1577;SDS011;57623;53.608;10.004;2023-07-13T13:37:47;4.13;;;2.70;;
1577;SDS011;57623;53.608;10.004;2023-07-13T13:40:17;4.60;;;2.70;;
1577;SDS011;57623;53.608;10.004;2023-07-13T13:42:47;2.70;;;2.43;;
1577;SDS011;57623;53.608;10.004;2023-07-13T13:45:16;1.97;;;1.87;;
1577;SDS011;57623;53.608;10.004;2023-07-13T13:47:46;3.13;;;2.30;;
1577;SDS011;57623;53.608;10.004;2023-07-13T13:50:16;2.50;;;2.30;;
1577;SDS011;57623;53.608;10.004;2023-07-13T13:52:46;3.10;;;2.47;;
1577;SDS011;57623;53.608;10.004;2023-07-13T13:55:15;2.93;;;2.57;;
1577;SDS011;57623;53.608;10.004;2023-07-13T13:57:45;2.20;;;2.00;;
1577;SDS011;57623;53.608;10.004;2023-07-13T14:00:14;2.70;;;2.50;;
1577;SDS011;57623;53.608;10.004;2023-07-13T14:02:46;3.00;;;2.67;;
1577;SDS011;57623;53.608;10.004;2023-07-13T14:05:22;4.53;;;2.87;;
1577;SDS011;57623;53.608;10.004;2023-07-13T14:07:52;3.07;;;2.50;;
1577;SDS011;57623;53.608;10.004;2023-07-13T14:10:20;2.80;;;2.60;;
1577;SDS011;57623;53.608;10.004;2023-07-13T14:12:53;2.87;;;2.53;;
1577;SDS011;57623;53.608;10.004;2023-07-13T14:15:24;2.87;;;2.30;;
1577;SDS011;57623;53.608;10.004;2023-07-13T14:17:54;2.47;;;2.27;;
1577;SDS011;57623;53.608;10.004;2023-07-13T14:20:24;3.80;;;2.50;;
1577;SDS011;57623;53.608;10.004;2023-07-13T14:22:53;2.60;;;2.37;;
1577;SDS011;57623;53.608;10.004;2023-07-13T14:25:21;2.50;;;2.30;;
1577;SDS011;57623;53.608;10.004;2023-07-13T14:27:51;4.23;;;2.90;;
1577;SDS011;57623;53.608;10.004;2023-07-13T14:30:26;2.83;;;2.53;;
1577;SDS011;57623;53.608;10.004;2023-07-13T14:32:54;2.67;;;2.47;;
1577;SDS011;57623;53.608;10.004;2023-07-13T14:35:22;3.13;;;2.83;;
1577;SDS011;57623;53.608;10.004;2023-07-13T14:37:50;2.73;;;2.53;;
1577;SDS011;57623;53.608;10.004;2023-07-13T14:40:19;3.33;;;2.73;;
1577;SDS011;57623;53.608;10.004;2023-07-13T14:42:52;3.47;;;3.00;;
1577;SDS011;57623;53.608;10.004;2023-07-13T14:45:20;4.03;;;2.93;;
1577;SDS011;57623;53.608;10.004;2023-07-13T14:47:50;2.60;;;2.40;;
1577;SDS011;57623;53.608;10.004;2023-07-13T14:50:19;3.30;;;3.00;;
1577;SDS011;57623;53.608;10.004;2023-07-13T14:52:58;2.70;;;2.50;;
1577;SDS011;57623;53.608;10.004;2023-07-13T14:55:26;2.90;;;2.70;;
1577;SDS011;57623;53.608;10.004;2023-07-13T14:57:54;3.10;;;2.80;;
1577;SDS011;57623;53.608;10.004;2023-07-13T15:00:24;3.90;;;2.90;;
1577;SDS011;57623;53.608;10.004;2023-07-13T15:02:55;3.93;;;2.90;;
1577;SDS011;57623;53.608;10.004;2023-07-13T15:05:25;3.40;;;2.80;;
1577;SDS011;57623;53.608;10.004;2023-07-13T15:07:56;3.73;;;2.83;;
1577;SDS011;57623;53.608;10.004;2023-07-13T15:10:27;3.03;;;2.63;;